createdAt,value
2019-04-07T00:01:57.332Z,37.65
2019-04-07T00:04:25.818Z,37.20
2019-04-07T00:06:54.450Z,35.08
2019-04-07T00:09:23.218Z,35.35
2019-04-07T00:11:51.954Z,36.90
2019-04-07T00:14:20.675Z,33.88
2019-04-07T00:16:49.532Z,35.20
2019-04-07T00:19:18.246Z,35.30
2019-04-07T00:21:46.843Z,34.63
2019-04-07T00:24:15.168Z,31.70
2019-04-07T00:26:43.448Z,33.80
2019-04-07T00:29:11.686Z,36.35
2019-04-07T00:31:39.958Z,36.50
2019-04-07T00:34:08.202Z,37.08
2019-04-07T00:36:36.482Z,35.63
2019-04-07T00:39:07.358Z,37.70
2019-04-07T00:41:35.658Z,33.15
2019-04-07T00:44:03.903Z,30.75
2019-04-07T00:46:32.289Z,33.83
2019-04-07T00:49:00.505Z,32.48
2019-04-07T00:51:28.753Z,36.33
2019-04-07T00:53:57.275Z,34.25
2019-04-07T00:56:25.863Z,30.55
2019-04-07T00:58:54.547Z,34.30
2019-04-07T01:01:22.871Z,33.92
2019-04-07T01:03:51.111Z,35.40
2019-04-07T01:06:19.366Z,39.10
2019-04-07T01:08:47.855Z,34.58
2019-04-07T01:11:16.737Z,32.75
2019-04-07T01:13:45.224Z,33.60
2019-04-07T01:16:13.969Z,34.05
2019-04-07T01:18:42.779Z,37.63
2019-04-07T01:21:11.099Z,33.23
2019-04-07T01:23:39.550Z,34.08
2019-04-07T01:26:08.550Z,35.90
2019-04-07T01:28:37.491Z,38.30
2019-04-07T01:31:07.079Z,36.83
2019-04-07T01:33:35.473Z,31.87
2019-04-07T01:36:03.755Z,36.23
2019-04-07T01:38:32.153Z,38.05
2019-04-07T01:41:02.081Z,38.02
2019-04-07T01:43:31.971Z,34.15
2019-04-07T01:46:04.427Z,37.25
2019-04-07T01:48:34.642Z,36.93
2019-04-07T01:51:08.102Z,34.30
2019-04-07T01:53:53.185Z,35.10
2019-04-07T01:56:32.619Z,32.73
2019-04-07T01:59:05.497Z,33.67
2019-04-07T02:01:51.791Z,34.38
2019-04-07T02:04:22.007Z,37.67
2019-04-07T02:06:55.385Z,37.83
2019-04-07T02:09:25.777Z,38.23
2019-04-07T02:11:56.337Z,34.75
2019-04-07T02:14:30.133Z,37.23
2019-04-07T02:17:17.280Z,41.13
2019-04-07T02:19:53.275Z,43.13
2019-04-07T02:22:26.363Z,36.42
2019-04-07T02:25:08.331Z,42.35
2019-04-07T02:27:38.392Z,36.83
2019-04-07T02:30:14.740Z,34.75
2019-04-07T02:32:48.408Z,38.17
2019-04-07T02:35:28.153Z,38.23
2019-04-07T02:37:58.169Z,36.65
2019-04-07T02:40:37.338Z,40.80
2019-04-07T02:43:14.015Z,36.98
2019-04-07T02:45:50.675Z,41.37
2019-04-07T02:48:29.897Z,39.27
2019-04-07T02:51:11.762Z,44.30
2019-04-07T02:53:51.060Z,42.17
2019-04-07T02:56:20.993Z,43.05
2019-04-07T02:58:53.350Z,41.13
2019-04-07T03:01:29.754Z,40.55
2019-04-07T03:04:18.925Z,38.17
2019-04-07T03:06:52.884Z,43.20
2019-04-07T03:09:23.269Z,44.88
2019-04-07T03:11:56.326Z,37.05
2019-04-07T03:14:26.377Z,38.85
2019-04-07T03:16:56.259Z,42.78
2019-04-07T03:19:35.454Z,44.73
2019-04-07T03:22:20.796Z,39.95
2019-04-07T03:25:07.132Z,40.40
2019-04-07T03:27:55.946Z,43.48
2019-04-07T03:30:42.241Z,40.38
2019-04-07T03:33:25.999Z,42.78
2019-04-07T03:35:57.119Z,42.45
2019-04-07T03:38:46.241Z,45.70
2019-04-07T03:41:25.737Z,39.27
2019-04-07T03:44:11.872Z,42.25
2019-04-07T03:46:42.798Z,43.23
2019-04-07T03:49:13.490Z,44.42
2019-04-07T03:51:46.104Z,46.08
2019-04-07T03:54:28.365Z,47.48
2019-04-07T03:59:35.159Z,46.42
2019-04-07T04:02:05.360Z,44.50
2019-04-07T04:04:37.821Z,45.28
2019-04-07T04:07:22.395Z,44.58
2019-04-07T04:09:42.927Z,46.55
2019-04-07T04:12:29.950Z,46.18
2019-04-07T04:15:01.304Z,46.05
2019-04-07T04:17:30.555Z,42.35
2019-04-07T04:19:59.119Z,44.18
2019-04-07T04:22:28.991Z,44.18
2019-04-07T04:24:57.728Z,43.78
2019-04-07T04:27:26.219Z,43.80
2019-04-07T04:29:55.189Z,43.00
2019-04-07T04:32:23.781Z,43.35
2019-04-07T04:34:52.073Z,46.77
2019-04-07T04:37:34.282Z,38.98
2019-04-07T04:39:51.188Z,39.50
2019-04-07T04:42:20.429Z,40.52
2019-04-07T04:44:48.826Z,39.80
2019-04-07T04:47:17.144Z,42.17
2019-04-07T04:49:45.414Z,40.43
2019-04-07T04:52:13.692Z,38.53
2019-04-07T04:54:42.171Z,42.93
2019-04-07T04:57:11.218Z,40.85
2019-04-07T04:59:40.242Z,35.88
2019-04-07T05:02:08.995Z,35.03
2019-04-07T05:04:37.522Z,36.60
2019-04-07T05:07:05.772Z,37.88
2019-04-07T05:09:41.150Z,36.05
2019-04-07T05:12:05.589Z,34.90
2019-04-07T05:14:34.125Z,37.17
2019-04-07T05:17:02.387Z,36.45
2019-04-07T05:19:30.655Z,35.35
2019-04-07T05:21:59.065Z,34.53
2019-04-07T05:24:28.045Z,36.55
2019-04-07T05:26:56.299Z,43.05
2019-04-07T05:29:24.740Z,36.98
2019-04-07T05:31:54.012Z,37.13
2019-04-07T05:34:23.051Z,37.10
2019-04-07T05:36:51.379Z,35.58
2019-04-07T05:39:19.650Z,38.55
2019-04-07T05:41:48.155Z,42.55
2019-04-07T05:44:16.756Z,42.90
2019-04-07T05:46:45.316Z,35.75
2019-04-07T05:49:15.787Z,36.17
2019-04-07T05:51:43.501Z,38.30
2019-04-07T05:54:12.444Z,38.67
2019-04-07T05:56:41.293Z,36.65
2019-04-07T05:59:12.167Z,38.90
2019-04-07T06:01:40.171Z,38.63
2019-04-07T06:04:08.919Z,39.78
2019-04-07T06:06:39.988Z,38.83
2019-04-07T06:09:08.009Z,38.10
2019-04-07T06:11:36.273Z,37.93
2019-04-07T06:14:05.013Z,40.40
2019-04-07T06:16:34.404Z,39.92
2019-04-07T06:19:06.993Z,41.37
2019-04-07T06:21:33.346Z,40.52
2019-04-07T06:24:02.470Z,40.63
2019-04-07T06:26:31.253Z,44.60
2019-04-07T06:28:59.860Z,42.60
2019-04-07T06:31:31.356Z,43.92
2019-04-07T06:33:58.083Z,42.93
2019-04-07T06:36:26.860Z,41.13
2019-04-07T06:38:55.328Z,39.75
2019-04-07T06:41:25.006Z,39.75
2019-04-07T06:43:54.188Z,39.08
2019-04-07T06:46:28.487Z,41.30
2019-04-07T06:49:00.335Z,42.75
2019-04-07T06:51:31.156Z,40.65
2019-04-07T06:54:21.049Z,41.13
2019-04-07T06:56:47.905Z,39.65
2019-04-07T06:59:17.830Z,41.90
2019-04-07T07:01:47.729Z,42.15
2019-04-07T07:04:17.943Z,37.98
2019-04-07T07:06:56.893Z,34.20
2019-04-07T07:09:33.400Z,34.53
2019-04-07T07:12:20.058Z,37.90
2019-04-07T07:14:47.408Z,35.45
2019-04-07T07:17:19.533Z,37.98
2019-04-07T07:20:06.460Z,38.15
2019-04-07T07:22:52.934Z,35.05
2019-04-07T07:25:21.498Z,33.63
2019-04-07T07:27:49.752Z,38.15
2019-04-07T07:30:19.558Z,37.95
2019-04-07T07:32:48.616Z,36.80
2019-04-07T07:35:16.874Z,40.43
2019-04-07T07:37:45.527Z,38.70
2019-04-07T07:40:16.587Z,33.83
2019-04-07T07:42:44.149Z,34.50
2019-04-07T07:45:13.688Z,39.45
2019-04-07T07:47:42.666Z,35.43
2019-04-07T07:50:11.358Z,37.42
2019-04-07T07:52:40.326Z,38.02
2019-04-07T07:55:08.600Z,38.45
2019-04-07T07:57:37.092Z,35.03
2019-04-07T08:00:09.251Z,34.60
2019-04-07T08:05:07.130Z,35.75
2019-04-07T08:07:35.920Z,40.03
2019-04-07T08:10:06.241Z,38.90
2019-04-07T08:12:35.646Z,35.70
2019-04-07T08:15:05.929Z,37.08
2019-04-07T08:17:34.349Z,38.78
2019-04-07T08:20:02.601Z,36.30
2019-04-07T08:22:36.556Z,41.23
2019-04-07T08:25:01.050Z,37.78
2019-04-07T08:27:31.202Z,41.55
2019-04-07T08:29:59.297Z,43.90
2019-04-07T08:32:30.832Z,42.08
2019-04-07T08:35:00.037Z,38.58
2019-04-07T08:37:27.578Z,41.53
2019-04-07T08:39:57.737Z,42.08
2019-04-07T08:42:25.823Z,42.62
2019-04-07T08:44:57.192Z,43.45
2019-04-07T08:47:24.622Z,43.92
2019-04-07T08:49:55.420Z,39.73
2019-04-07T08:52:23.448Z,46.48
2019-04-07T08:54:53.414Z,41.80
2019-04-07T08:57:22.585Z,44.18
2019-04-07T08:59:51.441Z,44.83
2019-04-07T09:02:20.036Z,38.75
2019-04-07T09:04:51.253Z,40.52
2019-04-07T09:07:19.277Z,41.65
2019-04-07T09:09:48.852Z,39.35
2019-04-07T09:12:17.812Z,40.58
2019-04-07T09:14:46.716Z,40.92
2019-04-07T09:17:32.210Z,40.90
2019-04-07T09:20:06.107Z,40.98
2019-04-07T09:22:34.782Z,43.63
2019-04-07T09:25:09.453Z,38.88
2019-04-07T09:27:38.936Z,38.25
2019-04-07T09:30:25.211Z,39.15
2019-04-07T09:32:58.058Z,40.50
2019-04-07T09:35:30.961Z,35.48
2019-04-07T09:38:12.815Z,38.75
2019-04-07T09:40:46.253Z,37.73
2019-04-07T09:43:17.982Z,40.65
2019-04-07T09:45:54.176Z,38.53
2019-04-07T09:48:26.906Z,41.80
2019-04-07T09:51:02.529Z,39.15
2019-04-07T09:53:48.759Z,36.13
2019-04-07T09:56:33.738Z,40.10
2019-04-07T09:59:03.908Z,36.83
2019-04-07T10:01:44.661Z,38.60
2019-04-07T10:04:17.399Z,36.85
2019-04-07T10:06:53.295Z,39.15
2019-04-07T10:09:32.255Z,37.40
2019-04-07T10:12:17.327Z,41.95
2019-04-07T10:15:05.515Z,39.03
2019-04-07T10:17:51.882Z,41.60
2019-04-07T10:20:28.545Z,37.40
2019-04-07T10:23:10.861Z,41.65
2019-04-07T10:25:46.799Z,38.48
2019-04-07T10:28:33.448Z,37.28
2019-04-07T10:31:06.544Z,39.55
2019-04-07T10:33:39.182Z,38.38
2019-04-07T10:36:27.137Z,38.55
2019-04-07T10:39:15.402Z,40.45
2019-04-07T10:42:00.331Z,36.75
2019-04-07T10:44:46.890Z,38.95
2019-04-07T10:47:29.144Z,38.02
2019-04-07T10:53:03.787Z,37.88
2019-04-07T10:55:37.936Z,36.60
2019-04-07T10:58:08.290Z,38.50
2019-04-07T11:00:45.357Z,36.80
2019-04-07T11:03:23.015Z,40.30
2019-04-07T11:05:53.720Z,35.75
2019-04-07T11:08:40.016Z,36.93
2019-04-07T11:11:22.263Z,42.23
2019-04-07T11:14:09.723Z,37.58
2019-04-07T11:16:39.724Z,39.88
2019-04-07T11:19:09.901Z,36.35
2019-04-07T11:21:40.452Z,38.23
2019-04-07T11:24:19.761Z,34.83
2019-04-07T11:27:06.533Z,34.80
2019-04-07T11:29:42.658Z,31.77
2019-04-07T11:32:30.645Z,36.53
2019-04-07T11:35:15.673Z,39.85
2019-04-07T11:38:02.631Z,34.23
2019-04-07T11:40:45.777Z,32.83
2019-04-07T11:43:22.765Z,31.62
2019-04-07T11:45:59.106Z,34.70
2019-04-07T11:48:40.611Z,34.03
2019-04-07T11:51:16.207Z,35.92
2019-04-07T11:53:46.092Z,31.45
2019-04-07T11:56:19.416Z,35.35
2019-04-07T11:58:52.928Z,34.88
2019-04-07T12:01:26.180Z,38.90
2019-04-07T12:03:59.974Z,36.30
2019-04-07T12:06:30.024Z,34.90
2019-04-07T12:09:00.284Z,40.60
2019-04-07T12:11:36.307Z,42.73
2019-04-07T12:14:09.415Z,42.90
2019-04-07T12:16:58.319Z,43.55
2019-04-07T12:19:27.878Z,34.15
2019-04-07T12:22:12.897Z,37.00
2019-04-07T12:24:42.212Z,34.13
2019-04-07T12:27:20.362Z,40.43
2019-04-07T12:29:50.426Z,38.38
2019-04-07T12:32:23.880Z,36.42
2019-04-07T12:35:06.306Z,38.60
2019-04-07T12:37:45.306Z,41.02
2019-04-07T12:40:15.272Z,42.25
2019-04-07T12:42:58.075Z,37.88
2019-04-07T12:45:43.833Z,40.83
2019-04-07T12:48:14.499Z,47.45
2019-04-07T12:50:46.548Z,43.92
2019-04-07T12:53:32.156Z,42.95
2019-04-07T12:56:05.905Z,43.38
2019-04-07T12:58:48.534Z,43.13
2019-04-07T13:01:34.841Z,50.90
2019-04-07T13:04:23.346Z,59.35
2019-04-07T13:06:53.436Z,48.83
2019-04-07T13:09:32.062Z,46.28
2019-04-07T13:12:06.513Z,49.53
2019-04-07T13:14:42.804Z,49.10
2019-04-07T13:17:34.243Z,51.55
2019-04-07T13:20:12.994Z,55.08
2019-04-07T13:25:18.798Z,47.05
2019-04-07T13:27:50.045Z,56.70
2019-04-07T13:30:28.845Z,42.17
2019-04-07T13:33:01.634Z,49.25
2019-04-07T13:35:30.351Z,51.60
2019-04-07T13:38:03.096Z,50.60
2019-04-07T13:40:46.956Z,48.70
2019-04-07T13:43:33.940Z,50.50
2019-04-07T13:46:04.212Z,53.60
2019-04-07T13:48:42.771Z,60.30
2019-04-07T13:51:29.351Z,55.05
2019-04-07T13:54:23.334Z,58.60
2019-04-07T13:57:09.103Z,56.40
2019-04-07T13:59:50.931Z,52.93
2019-04-07T14:02:30.451Z,52.33
2019-04-07T14:05:09.655Z,50.08
2019-04-07T14:07:57.082Z,51.83
2019-04-07T14:10:37.211Z,54.70
2019-04-07T14:13:25.695Z,50.90
2019-04-07T14:16:10.497Z,54.30
2019-04-07T14:18:56.987Z,53.42
2019-04-07T14:21:27.527Z,49.00
2019-04-07T14:24:08.098Z,44.55
2019-04-07T14:26:41.287Z,42.75
2019-04-07T14:29:11.972Z,43.50
2019-04-07T14:31:59.304Z,44.08
2019-04-07T14:34:47.744Z,40.38
2019-04-07T14:37:20.544Z,40.12
2019-04-07T14:39:53.428Z,37.58
2019-04-07T14:42:29.436Z,41.98
2019-04-07T14:45:14.598Z,45.03
2019-04-07T14:47:47.955Z,39.95
2019-04-07T14:50:25.133Z,42.83
2019-04-07T14:52:57.909Z,41.88
2019-04-07T14:55:44.047Z,38.10
2019-04-07T14:58:22.950Z,39.38
2019-04-07T15:01:08.369Z,44.08
2019-04-07T15:03:36.703Z,47.73
2019-04-07T15:06:05.421Z,41.37
2019-04-07T15:08:35.601Z,41.68
2019-04-07T15:11:17.810Z,41.02
2019-04-07T15:13:46.063Z,42.75
2019-04-07T15:16:14.341Z,37.73
2019-04-07T15:18:42.584Z,42.83
2019-04-07T15:21:11.052Z,46.28
2019-04-07T15:23:40.076Z,40.03
2019-04-07T15:26:11.965Z,39.38
2019-04-07T15:28:40.418Z,37.65
2019-04-07T15:31:09.654Z,39.58
2019-04-07T15:33:38.217Z,39.35
2019-04-07T15:36:08.311Z,42.60
2019-04-07T15:38:39.294Z,40.50
2019-04-07T15:41:10.717Z,40.95
2019-04-07T15:43:37.196Z,41.08
2019-04-07T15:46:05.551Z,35.83
2019-04-07T15:48:34.064Z,33.63
2019-04-07T15:51:04.857Z,34.00
2019-04-07T15:53:33.072Z,30.97
2019-04-07T15:56:05.898Z,35.95
2019-04-07T15:58:32.057Z,33.13
2019-04-07T16:01:00.367Z,35.52
2019-04-07T16:03:28.775Z,34.90
2019-04-07T16:05:57.863Z,37.03
2019-04-07T16:08:28.811Z,32.83
2019-04-07T16:10:56.317Z,34.65
2019-04-07T16:13:24.972Z,37.05
2019-04-07T16:15:55.214Z,33.15
2019-04-07T16:18:23.300Z,39.10
2019-04-07T16:20:51.538Z,37.25
2019-04-07T16:23:19.824Z,38.90
2019-04-07T16:25:48.118Z,39.83
2019-04-07T16:28:16.422Z,34.10
2019-04-07T16:30:48.642Z,34.45
2019-04-07T16:33:15.250Z,37.30
2019-04-07T16:35:46.955Z,40.63
2019-04-07T16:38:14.155Z,36.83
2019-04-07T16:40:43.461Z,37.65
2019-04-07T16:43:16.066Z,38.33
2019-04-07T16:45:44.145Z,35.33
2019-04-07T16:48:11.809Z,37.83
2019-04-07T16:50:40.057Z,47.25
2019-04-07T16:53:09.192Z,36.98
2019-04-07T16:55:40.267Z,42.78
2019-04-07T16:58:09.768Z,39.18
2019-04-07T17:00:38.400Z,43.68
2019-04-07T17:03:08.080Z,42.17
2019-04-07T17:05:36.492Z,38.00
2019-04-07T17:08:05.478Z,40.43
2019-04-07T17:10:35.303Z,39.60
2019-04-07T17:13:15.447Z,41.83
2019-04-07T17:15:37.331Z,44.53
2019-04-07T17:18:07.262Z,42.35
2019-04-07T17:20:37.672Z,45.97
2019-04-07T17:23:05.019Z,38.73
2019-04-07T17:25:34.592Z,40.25
2019-04-07T17:28:04.035Z,38.40
2019-04-07T17:30:33.930Z,41.45
2019-04-07T17:33:03.218Z,40.03
2019-04-07T17:35:32.809Z,39.38
2019-04-07T17:38:05.369Z,38.25
2019-04-07T17:40:33.528Z,39.90
2019-04-07T17:43:09.656Z,43.55
2019-04-07T17:45:54.730Z,37.70
2019-04-07T17:48:25.517Z,38.63
2019-04-07T17:50:56.453Z,39.73
2019-04-07T17:53:26.552Z,38.05
2019-04-07T17:56:08.710Z,41.00
2019-04-07T18:01:28.643Z,37.75
2019-04-07T18:04:04.133Z,37.13
2019-04-07T18:06:36.741Z,40.38
2019-04-07T18:09:12.290Z,40.43
2019-04-07T18:12:03.071Z,39.05
2019-04-07T18:14:31.344Z,39.58
2019-04-07T18:17:16.329Z,39.85
2019-04-07T18:19:51.910Z,40.75
2019-04-07T18:22:37.028Z,38.67
2019-04-07T18:25:25.128Z,41.65
2019-04-07T18:27:55.445Z,41.85
2019-04-07T18:30:25.869Z,46.05
2019-04-07T18:33:08.041Z,38.88
2019-04-07T18:35:43.892Z,42.03
2019-04-07T18:38:17.339Z,42.35
2019-04-07T18:40:55.789Z,46.60
2019-04-07T18:43:27.815Z,41.20
2019-04-07T18:46:07.270Z,43.50
2019-04-07T18:48:53.335Z,46.85
2019-04-07T18:51:23.511Z,51.08
2019-04-07T18:54:08.618Z,52.70
2019-04-07T18:56:40.720Z,46.83
2019-04-07T18:59:11.730Z,51.33
2019-04-07T19:01:41.620Z,45.85
2019-04-07T19:04:27.986Z,45.50
2019-04-07T19:06:58.791Z,48.00
2019-04-07T19:09:43.669Z,47.65
2019-04-07T19:12:30.087Z,46.08
2019-04-07T19:15:13.459Z,43.17
2019-04-07T19:17:46.382Z,42.80
2019-04-07T19:20:27.954Z,45.15
2019-04-07T19:22:58.207Z,40.48
2019-04-07T19:25:37.704Z,38.17
2019-04-07T19:28:26.293Z,39.30
2019-04-07T19:31:01.972Z,39.78
2019-04-07T19:33:47.728Z,40.05
2019-04-07T19:36:23.851Z,41.95
2019-04-07T19:38:56.417Z,41.00
2019-04-07T19:41:42.598Z,43.98
2019-04-07T19:44:37.247Z,41.10
2019-04-07T19:47:03.100Z,40.83
2019-04-07T19:49:52.311Z,43.60
2019-04-07T19:52:22.902Z,39.67
2019-04-07T19:54:52.975Z,46.90
2019-04-07T19:57:39.398Z,40.30
2019-04-07T20:00:27.690Z,41.42
2019-04-07T20:03:03.919Z,44.80
2019-04-07T20:05:35.005Z,43.13
2019-04-07T20:08:07.821Z,43.92
2019-04-07T20:10:38.007Z,40.20
2019-04-07T20:13:11.283Z,40.30
2019-04-07T20:15:58.782Z,36.90
2019-04-07T20:18:45.970Z,33.67
2019-04-07T20:21:39.090Z,34.78
2019-04-07T20:24:21.660Z,34.48
2019-04-07T20:26:57.463Z,38.67
2019-04-07T20:29:28.053Z,34.48
2019-04-07T20:32:11.049Z,34.65
2019-04-07T20:34:57.109Z,33.92
2019-04-07T20:37:27.917Z,31.40
2019-04-07T20:40:17.255Z,32.08
2019-04-07T20:42:54.382Z,32.23
2019-04-07T20:45:25.119Z,36.42
2019-04-07T20:47:59.256Z,34.05
2019-04-07T20:50:26.674Z,34.60
2019-04-07T20:53:10.138Z,37.73
2019-04-07T20:55:30.969Z,36.85
2019-04-07T20:58:15.204Z,34.53
2019-04-07T21:00:39.173Z,35.35
2019-04-07T21:03:26.544Z,36.60
2019-04-07T21:06:02.095Z,36.38
2019-04-07T21:08:48.799Z,33.18
2019-04-07T21:11:24.670Z,34.18
2019-04-07T21:14:00.886Z,36.50
2019-04-07T21:16:49.704Z,38.60
2019-04-07T21:19:20.791Z,38.35
2019-04-07T21:22:06.865Z,39.58
2019-04-07T21:24:40.141Z,38.80
2019-04-07T21:27:12.955Z,38.38
2019-04-07T21:29:45.579Z,43.40
2019-04-07T21:32:18.731Z,44.83
2019-04-07T21:34:49.370Z,42.27
2019-04-07T21:37:24.975Z,41.05
2019-04-07T21:39:55.722Z,40.67
2019-04-07T21:42:25.719Z,41.37
2019-04-07T21:45:05.542Z,39.85
2019-04-07T21:47:33.203Z,36.68
2019-04-07T21:50:23.565Z,33.67
2019-04-07T21:52:55.893Z,38.00
2019-04-07T21:55:28.821Z,34.98
2019-04-07T21:58:08.361Z,31.77
2019-04-07T22:00:55.097Z,33.78
2019-04-07T22:03:27.737Z,36.73
2019-04-07T22:06:00.592Z,33.63
2019-04-07T22:08:42.119Z,31.00
2019-04-07T22:11:09.526Z,33.67
2019-04-07T22:13:38.625Z,39.55
2019-04-07T22:16:07.937Z,32.00
2019-04-07T22:18:37.452Z,28.90
2019-04-07T22:21:06.496Z,35.43
2019-04-07T22:23:34.741Z,31.10
2019-04-07T22:26:03.022Z,29.42
2019-04-07T22:28:31.747Z,33.63
2019-04-07T22:31:00.215Z,31.50
2019-04-07T22:33:30.865Z,33.35
2019-04-07T22:35:58.442Z,35.17
2019-04-07T22:38:27.360Z,31.17
2019-04-07T22:40:56.308Z,30.00
2019-04-07T22:43:25.011Z,33.10
2019-04-07T22:46:04.123Z,29.55
2019-04-07T22:48:26.506Z,40.83
2019-04-07T22:50:53.862Z,33.00
2019-04-07T22:53:25.282Z,33.88
2019-04-07T22:55:52.704Z,37.95
2019-04-07T22:58:21.082Z,32.25
2019-04-07T23:00:50.585Z,38.15
2019-04-07T23:03:19.713Z,37.55
2019-04-07T23:05:47.982Z,32.30
2019-04-07T23:08:16.663Z,39.42
2019-04-07T23:10:45.081Z,37.58
2019-04-07T23:13:13.380Z,40.15
2019-04-07T23:15:45.561Z,35.08
2019-04-07T23:18:11.685Z,33.65
2019-04-07T23:20:39.922Z,37.90
2019-04-07T23:23:08.862Z,35.30
2019-04-07T23:25:37.226Z,35.23
2019-04-07T23:28:06.232Z,34.43
2019-04-07T23:30:35.461Z,32.20
2019-04-07T23:33:04.195Z,26.45
2019-04-07T23:35:32.993Z,29.27
2019-04-07T23:38:01.558Z,28.40
2019-04-07T23:40:30.202Z,26.70
2019-04-07T23:42:58.840Z,27.13
2019-04-07T23:45:27.408Z,30.00
2019-04-07T23:47:55.774Z,22.95
2019-04-07T23:50:24.018Z,25.17
2019-04-07T23:52:52.256Z,23.70
2019-04-07T23:55:20.551Z,25.80
2019-04-07T23:57:48.780Z,23.05
